Time;durP1;ratioP1;P1;durP2;ratioP2;P2;SDS_P1;SDS_P2;PMS_P1;PMS_P2;Temp;Humidity;BMP_temperature;BMP_pressure;BME280_temperature;BME280_humidity;BME280_pressure;Samples;Min_cycle;Max_cycle;Signal;HPM_P1;HPM_P2
2021/06/21 00:01:33;;;;;;;12.70;4.05;;;19.20;95.10;;;;;;4920408;29;20168;-96
2021/06/21 00:04:00;;;;;;;14.18;4.38;;;19.20;95.20;;;;;;4920635;29;20032;-95
2021/06/21 00:06:28;;;;;;;16.55;5.65;;;19.20;95.20;;;;;;4919259;29;20508;-95
2021/06/21 00:36:16;;;;;;;16.92;4.60;;;19.10;95.70;;;;;;4926673;29;20050;-95
2021/06/21 00:46:51;;;;;;;13.52;4.38;;;19.00;96.10;;;;;;4870763;29;20514;-95
2021/06/21 01:10:57;;;;;;;;;;;;;;;;;;;;;
2021/06/21 01:18:09;;;;;;;;;;;;;;;;;;;;;
2021/06/21 01:20:46;;;;;;;;;;;18.80;95.80;;;;;;4918844;29;20381;-95
2021/06/21 01:26:53;;;;;;;16.33;5.40;;;18.90;95.90;;;;;;4924898;29;20042;-95
2021/06/21 01:29:51;;;;;;;14.45;4.95;;;18.80;95.90;;;;;;4921263;29;20055;-94
2021/06/21 01:33:25;;;;;;;;;;;;;;;;;;;;;
2021/06/21 01:49:02;;;;;;;14.77;5.63;;;18.80;95.90;;;;;;5010736;23;20506;-94
2021/06/21 01:51:33;;;;;;;15.25;4.95;;;18.70;95.80;;;;;;4895901;29;20024;-95
2021/06/21 01:54:02;;;;;;;12.82;4.45;;;18.70;95.90;;;;;;4902232;29;20028;-96
2021/06/21 01:56:37;;;;;;;15.35;5.38;;;18.70;95.90;;;;;;4902498;29;20020;-95
2021/06/21 01:59:07;;;;;;;13.43;4.57;;;18.60;95.90;;;;;;4902570;29;20043;-95
2021/06/21 02:02:04;;;;;;;13.55;5.18;;;18.80;95.90;;;;;;4923779;29;20036;-96
2021/06/21 02:08:00;;;;;;;15.80;5.25;;;18.60;96.00;;;;;;4940865;29;20048;-96
2021/06/21 02:10:27;;;;;;;19.13;5.25;;;18.60;96.00;;;;;;4897456;29;20028;-95
2021/06/21 02:13:00;;;;;;;14.98;5.07;;;18.50;96.00;;;;;;4899106;29;20028;-91
2021/06/21 02:16:29;;;;;;;;;;;;;;;;;;;;;
2021/06/21 02:19:15;;;;;;;;;;;;;;;;;;;;;
2021/06/21 02:26:03;;;;;;;;;;;;;;;;;;;;;
2021/06/21 02:29:30;;;;;;;;;;;;;;;;;;;;;
2021/06/21 02:39:07;;;;;;;12.23;4.00;;;18.30;96.00;;;;;;4791447;29;20508;-95
2021/06/21 02:42:09;;;;;;;16.73;3.65;;;18.20;95.90;;;;;;4805973;29;20031;-94
2021/06/21 02:44:56;;;;;;;11.25;3.50;;;18.30;96.00;;;;;;4897502;29;20079;-95
2021/06/21 02:51:18;;;;;;;15.25;4.40;;;18.10;96.00;;;;;;4895568;29;20126;-96
2021/06/21 02:54:42;;;;;;;15.55;4.35;;;18.30;96.20;;;;;;4900192;29;20044;-94
2021/06/21 03:01:24;;;;;;;16.25;4.50;;;18.10;96.10;;;;;;4895422;29;20450;-95
2021/06/21 03:08:24;;;;;;;;;;;;;;;;;;;;;
2021/06/21 03:15:28;;;;;;;;;;;;;;;;;;;;;
2021/06/21 03:18:47;;;;;;;16.33;4.70;;;18.10;96.20;;;;;;4864202;29;20046;-95
2021/06/21 03:49:55;;;;;;;15.80;4.32;;;18.40;96.50;;;;;;4996194;23;20052;-96
2021/06/21 03:52:21;;;;;;;15.32;5.15;;;18.40;96.60;;;;;;4915706;29;20063;-96
2021/06/21 03:54:47;;;;;;;16.40;5.25;;;18.60;96.60;;;;;;4900784;29;20508;-96
2021/06/21 03:57:15;;;;;;;14.23;5.18;;;18.40;96.50;;;;;;4900806;29;20120;-93
2021/06/21 03:59:41;;;;;;;14.13;4.40;;;18.20;96.40;;;;;;4902852;29;20032;-94
2021/06/21 04:02:06;;;;;;;16.90;3.92;;;18.80;96.40;;;;;;4906731;29;20027;-94
2021/06/21 04:04:32;;;;;;;10.82;4.10;;;18.20;96.30;;;;;;4900353;29;20127;-94
2021/06/21 04:06:58;;;;;;;13.57;4.00;;;18.80;96.60;;;;;;4923480;29;20051;-94
2021/06/21 04:09:23;;;;;;;12.57;3.72;;;18.50;96.60;;;;;;4929634;29;20032;-94
2021/06/21 04:11:50;;;;;;;13.80;4.03;;;19.00;96.90;;;;;;4922999;29;20024;-94
2021/06/21 04:14:16;;;;;;;23.92;6.03;;;18.70;96.80;;;;;;4922349;29;20028;-94
2021/06/21 04:16:42;;;;;;;20.65;6.75;;;18.70;96.70;;;;;;4921984;29;20020;-94
2021/06/21 04:19:08;;;;;;;12.93;3.78;;;19.20;96.90;;;;;;4922650;29;20024;-95
2021/06/21 04:21:34;;;;;;;11.23;3.75;;;18.80;96.80;;;;;;4922035;29;20025;-94
2021/06/21 05:05:33;;;;;;;21.25;7.15;;;19.30;96.50;;;;;;5457393;23;19927;-94
2021/06/21 05:08:27;;;;;;;14.18;7.18;;;19.00;96.30;;;;;;4902969;29;20100;-91
2021/06/21 05:10:58;;;;;;;13.20;6.50;;;19.20;96.20;;;;;;4897699;29;20032;-92
2021/06/21 05:13:31;;;;;;;12.40;5.90;;;19.20;96.30;;;;;;4902239;29;20107;-92
2021/06/21 05:22:52;;;;;;;14.15;5.43;;;19.20;96.50;;;;;;4932832;29;20038;-88
2021/06/21 05:25:18;;;;;;;20.50;8.02;;;19.10;96.50;;;;;;4925014;29;20027;-82
2021/06/21 05:27:45;;;;;;;17.10;9.40;;;19.10;96.40;;;;;;4943730;29;20500;-83
2021/06/21 05:30:12;;;;;;;15.80;7.22;;;19.40;96.50;;;;;;4945396;29;20032;-83
2021/06/21 05:32:37;;;;;;;15.73;5.50;;;19.10;96.50;;;;;;4941787;29;20102;-83
2021/06/21 05:35:06;;;;;;;13.90;5.13;;;19.10;96.50;;;;;;4941200;29;20122;-83
2021/06/21 05:37:31;;;;;;;10.30;4.80;;;19.10;96.50;;;;;;4938459;29;20019;-83
2021/06/21 05:39:57;;;;;;;16.67;5.07;;;19.10;96.50;;;;;;4927908;29;20030;-83
2021/06/21 05:42:23;;;;;;;12.07;5.18;;;19.10;96.50;;;;;;4942838;29;20075;-84
2021/06/21 05:44:49;;;;;;;15.38;5.70;;;19.10;96.50;;;;;;4943681;29;20035;-84
2021/06/21 05:47:15;;;;;;;16.77;8.20;;;19.10;96.50;;;;;;4939826;29;20024;-83
2021/06/21 05:49:42;;;;;;;19.88;9.20;;;19.10;96.50;;;;;;4942032;29;20118;-84
2021/06/21 05:52:08;;;;;;;15.82;6.72;;;19.20;96.50;;;;;;4923644;29;20020;-83
2021/06/21 05:54:34;;;;;;;14.43;6.22;;;19.20;96.60;;;;;;4918943;29;20091;-85
2021/06/21 05:57:00;;;;;;;13.65;5.25;;;19.20;96.60;;;;;;4919256;29;20027;-86
2021/06/21 05:59:25;;;;;;;16.10;5.28;;;19.20;96.60;;;;;;4936250;29;20030;-86
2021/06/21 06:01:51;;;;;;;15.95;5.10;;;19.30;96.70;;;;;;4936457;29;20031;-85
2021/06/21 06:04:17;;;;;;;16.23;6.28;;;19.30;96.70;;;;;;4936429;29;20039;-85
2021/06/21 06:06:42;;;;;;;11.50;4.22;;;19.30;96.60;;;;;;4936171;29;20023;-86
2021/06/21 06:09:08;;;;;;;15.35;4.30;;;19.30;96.60;;;;;;4935844;29;20031;-86
2021/06/21 06:11:33;;;;;;;14.27;3.58;;;19.30;96.70;;;;;;4919607;29;20030;-86
2021/06/21 06:13:59;;;;;;;12.43;3.63;;;19.60;96.80;;;;;;4935747;29;20102;-86
2021/06/21 06:16:25;;;;;;;9.85;3.70;;;19.50;96.80;;;;;;4935273;29;20034;-87
2021/06/21 06:18:50;;;;;;;12.13;3.78;;;19.50;96.70;;;;;;4935631;29;20048;-86
2021/06/21 06:21:18;;;;;;;11.80;3.60;;;19.50;96.70;;;;;;4936084;29;20058;-87
2021/06/21 06:23:47;;;;;;;12.38;3.60;;;19.50;96.70;;;;;;4926122;29;20562;-88
2021/06/21 06:26:16;;;;;;;11.20;3.35;;;19.60;97.00;;;;;;4922599;29;20028;-89
2021/06/21 06:28:42;;;;;;;12.35;3.92;;;19.70;96.80;;;;;;4918668;29;20032;-90
2021/06/21 06:31:15;;;;;;;12.65;3.70;;;19.70;96.80;;;;;;4918582;29;20034;-88
2021/06/21 06:33:41;;;;;;;12.02;3.40;;;19.70;96.80;;;;;;4936390;29;20027;-90
2021/06/21 06:36:07;;;;;;;11.77;3.60;;;19.80;96.90;;;;;;4936407;29;20403;-93
2021/06/21 06:38:36;;;;;;;12.82;3.45;;;19.80;96.80;;;;;;4922787;29;20031;-90
2021/06/21 06:41:05;;;;;;;10.85;3.35;;;19.80;96.80;;;;;;4935937;29;20027;-90
2021/06/21 06:43:31;;;;;;;10.50;3.17;;;19.90;96.80;;;;;;4919267;29;20023;-89
2021/06/21 06:45:56;;;;;;;10.18;3.00;;;19.90;96.80;;;;;;4918434;29;20472;-89
2021/06/21 06:48:22;;;;;;;8.15;2.55;;;20.00;96.90;;;;;;4934967;29;20035;-88
2021/06/21 06:50:48;;;;;;;7.65;2.60;;;20.20;97.00;;;;;;4935183;29;20047;-88
2021/06/21 06:53:16;;;;;;;11.50;2.83;;;20.10;96.90;;;;;;4918795;29;20489;-89
2021/06/21 06:58:26;;;;;;;10.25;3.10;;;20.20;97.10;;;;;;4935461;29;20149;-90
2021/06/21 07:00:51;;;;;;;8.73;2.63;;;20.20;97.00;;;;;;4936157;29;20055;-89
2021/06/21 07:03:17;;;;;;;9.57;2.55;;;20.30;97.00;;;;;;4934618;29;20079;-89
2021/06/21 07:05:43;;;;;;;10.05;3.20;;;20.30;96.90;;;;;;4918606;29;20032;-89
2021/06/21 07:08:09;;;;;;;4.72;2.10;;;20.40;97.00;;;;;;4918772;29;20158;-90
2021/06/21 07:10:35;;;;;;;11.10;2.63;;;20.50;97.00;;;;;;4935393;29;20183;-88
2021/06/21 07:13:01;;;;;;;9.38;2.30;;;20.40;96.90;;;;;;4919416;29;20033;-88
2021/06/21 07:15:27;;;;;;;8.63;2.30;;;20.60;97.10;;;;;;4943289;29;20581;-89
2021/06/21 07:17:52;;;;;;;5.40;2.40;;;20.60;97.20;;;;;;4918319;29;20039;-88
2021/06/21 07:20:18;;;;;;;10.48;2.35;;;21.00;97.10;;;;;;4937177;29;20036;-93
2021/06/21 07:22:44;;;;;;;8.60;2.88;;;20.80;97.10;;;;;;4924312;29;20117;-89
2021/06/21 07:25:11;;;;;;;8.50;2.42;;;20.70;97.30;;;;;;4938348;29;20204;-93
2021/06/21 07:27:37;;;;;;;7.25;2.00;;;20.80;97.30;;;;;;4918013;29;20036;-88
2021/06/21 07:30:04;;;;;;;10.13;2.30;;;21.10;97.60;;;;;;4935942;29;20042;-89
2021/06/21 07:32:30;;;;;;;5.68;2.25;;;21.00;97.50;;;;;;4921461;29;20039;-90
2021/06/21 07:34:56;;;;;;;7.60;2.30;;;20.80;97.40;;;;;;4925312;29;20035;-88
2021/06/21 07:37:21;;;;;;;4.80;1.95;;;21.10;97.50;;;;;;4940826;29;20028;-88
2021/06/21 07:39:47;;;;;;;8.27;1.92;;;21.30;97.40;;;;;;4937664;29;20388;-87
2021/06/21 07:42:13;;;;;;;4.80;1.75;;;20.90;97.30;;;;;;4942681;29;20079;-88
2021/06/21 07:44:38;;;;;;;7.38;2.30;;;21.40;97.50;;;;;;4938826;29;20932;-88
2021/06/21 07:47:06;;;;;;;9.30;2.50;;;21.40;97.80;;;;;;4939013;29;20111;-88
2021/06/21 07:49:32;;;;;;;7.82;1.65;;;21.50;97.60;;;;;;4938742;29;20079;-88
2021/06/21 07:51:58;;;;;;;7.35;2.08;;;21.70;98.10;;;;;;4938456;29;20028;-88
2021/06/21 07:54:23;;;;;;;10.02;1.90;;;22.10;98.40;;;;;;4921673;29;20023;-88
2021/06/21 07:56:49;;;;;;;7.38;2.00;;;21.90;98.30;;;;;;4938677;29;20104;-88
2021/06/21 07:59:15;;;;;;;6.82;2.13;;;21.40;98.00;;;;;;4938672;29;20118;-87
2021/06/21 08:01:40;;;;;;;8.80;2.10;;;22.20;97.70;;;;;;4937413;29;20024;-87
2021/06/21 08:04:07;;;;;;;9.43;2.08;;;22.10;97.20;;;;;;4931627;29;20035;-88
2021/06/21 08:06:33;;;;;;;6.53;2.17;;;22.00;97.20;;;;;;4943617;29;20020;-87
2021/06/21 08:08:59;;;;;;;5.97;1.77;;;22.00;97.40;;;;;;4939477;29;20042;-88
2021/06/21 08:11:25;;;;;;;9.75;2.38;;;22.00;97.60;;;;;;4941185;29;20027;-87
2021/06/21 08:13:50;;;;;;;10.00;2.05;;;22.00;97.50;;;;;;4937938;29;20086;-88
2021/06/21 08:16:16;;;;;;;11.15;2.47;;;22.30;97.90;;;;;;4938474;29;20028;-87
2021/06/21 08:18:42;;;;;;;9.88;3.13;;;22.00;97.60;;;;;;4937855;29;20052;-87
2021/06/21 08:21:08;;;;;;;8.73;2.28;;;22.00;97.60;;;;;;4921215;29;20026;-88
2021/06/21 08:23:34;;;;;;;9.10;1.88;;;22.10;97.60;;;;;;4920943;29;20071;-87
2021/06/21 08:26:01;;;;;;;6.80;2.10;;;22.40;97.80;;;;;;4937916;29;20026;-90
2021/06/21 08:28:27;;;;;;;5.32;2.10;;;22.10;97.60;;;;;;4938196;29;20023;-89
2021/06/21 08:30:53;;;;;;;9.48;2.47;;;22.10;97.60;;;;;;4939660;29;20030;-88
2021/06/21 08:33:19;;;;;;;7.10;2.10;;;22.10;97.50;;;;;;4938270;29;20110;-89
2021/06/21 08:35:44;;;;;;;8.77;2.10;;;22.20;97.70;;;;;;4921150;29;20036;-87
2021/06/21 08:38:10;;;;;;;7.90;2.33;;;22.20;97.70;;;;;;4950977;29;20038;-87
2021/06/21 08:40:36;;;;;;;8.20;2.38;;;22.30;97.80;;;;;;4923757;29;20042;-89
2021/06/21 08:43:24;;;;;;;8.82;1.98;;;22.30;97.90;;;;;;4938260;29;20028;-87
2021/06/21 08:45:49;;;;;;;8.65;2.13;;;22.50;98.00;;;;;;4931338;29;20046;-88
2021/06/21 08:48:15;;;;;;;8.18;2.20;;;22.50;98.10;;;;;;4920796;29;20023;-88
2021/06/21 08:50:41;;;;;;;6.40;2.20;;;22.60;98.00;;;;;;4936088;29;20035;-88
2021/06/21 08:53:12;;;;;;;8.68;1.98;;;22.70;98.00;;;;;;4928028;29;20036;-88
2021/06/21 08:55:38;;;;;;;7.70;2.10;;;22.70;97.90;;;;;;4938112;29;20503;-87
2021/06/21 08:58:04;;;;;;;6.07;1.90;;;22.80;97.90;;;;;;4920826;29;20039;-88
2021/06/21 09:00:31;;;;;;;6.55;1.90;;;22.90;97.90;;;;;;4937886;29;20023;-89
2021/06/21 09:03:02;;;;;;;9.95;2.00;;;22.90;97.90;;;;;;4937755;29;20477;-89
2021/06/21 09:05:27;;;;;;;6.65;1.95;;;22.90;97.80;;;;;;4937290;29;20035;-89
2021/06/21 09:08:01;;;;;;;4.57;1.90;;;22.90;97.80;;;;;;4937000;29;20035;-89
2021/06/21 09:10:29;;;;;;;11.43;2.20;;;23.00;97.70;;;;;;4920778;29;20023;-90
2021/06/21 09:13:04;;;;;;;6.35;1.80;;;23.00;97.70;;;;;;4920639;29;20090;-91
2021/06/21 09:15:36;;;;;;;9.27;2.30;;;23.00;97.90;;;;;;4920946;29;20027;-92
2021/06/21 09:18:29;;;;;;;9.30;2.25;;;23.10;98.00;;;;;;4913963;29;20803;-90
2021/06/21 09:21:20;;;;;;;8.73;2.33;;;23.10;98.00;;;;;;4931326;29;20032;-90
2021/06/21 09:23:47;;;;;;;8.35;2.00;;;23.20;98.00;;;;;;4936174;29;20476;-90
2021/06/21 09:26:18;;;;;;;5.40;1.30;;;23.30;98.00;;;;;;4937152;29;20020;-89
2021/06/21 09:28:45;;;;;;;6.00;1.58;;;23.30;98.00;;;;;;4936964;29;20055;-89
2021/06/21 09:31:11;;;;;;;4.15;1.85;;;23.40;98.00;;;;;;4919196;29;20362;-90
2021/06/21 09:41:13;;;;;;;7.82;1.70;;;23.60;98.00;;;;;;4928086;29;20118;-87
2021/06/21 09:43:47;;;;;;;3.88;1.80;;;23.60;97.90;;;;;;4936846;29;20075;-87
2021/06/21 09:46:15;;;;;;;5.22;1.73;;;23.70;98.00;;;;;;4923520;29;20041;-88
2021/06/21 09:48:48;;;;;;;6.47;2.42;;;23.80;98.20;;;;;;4939322;29;20028;-89
2021/06/21 09:51:27;;;;;;;6.57;1.67;;;23.90;98.40;;;;;;4937029;29;20381;-87
2021/06/21 09:53:53;;;;;;;4.22;1.83;;;24.00;98.40;;;;;;4941099;29;20060;-87
2021/06/21 09:56:31;;;;;;;4.30;1.60;;;24.10;98.40;;;;;;4936362;29;20031;-87
2021/06/21 09:58:57;;;;;;;6.50;1.60;;;24.20;98.20;;;;;;4920658;29;20058;-89
2021/06/21 10:01:30;;;;;;;6.28;1.80;;;24.20;98.30;;;;;;4936482;29;20484;-88
2021/06/21 10:03:56;;;;;;;3.40;1.38;;;24.30;98.30;;;;;;4935233;29;20023;-90
2021/06/21 10:06:22;;;;;;;5.93;1.48;;;24.40;98.50;;;;;;4935670;29;20079;-89
2021/06/21 10:08:50;;;;;;;5.63;1.65;;;24.50;98.30;;;;;;4935910;29;20358;-91
2021/06/21 10:11:40;;;;;;;9.25;1.80;;;24.50;98.40;;;;;;4936750;29;20078;-90
2021/06/21 10:14:08;;;;;;;4.07;1.60;;;24.60;98.30;;;;;;4915433;29;20453;-89
2021/06/21 10:16:35;;;;;;;4.85;1.60;;;24.80;98.60;;;;;;4936066;29;20020;-89
2021/06/21 10:19:02;;;;;;;4.93;1.70;;;24.90;98.60;;;;;;4919469;29;20134;-89
2021/06/21 10:21:29;;;;;;;4.38;1.60;;;25.00;98.90;;;;;;4919497;29;20380;-89
2021/06/21 10:23:55;;;;;;;3.90;1.70;;;25.10;98.90;;;;;;4935939;29;20483;-89
2021/06/21 10:26:21;;;;;;;7.40;1.35;;;25.30;98.80;;;;;;4936410;29;20030;-88
2021/06/21 10:28:49;;;;;;;2.10;1.30;;;25.40;98.80;;;;;;4937923;29;20031;-88
2021/06/21 10:31:16;;;;;;;7.60;1.50;;;25.40;98.60;;;;;;4943204;29;20055;-89
2021/06/21 10:33:41;;;;;;;6.82;1.50;;;25.50;98.70;;;;;;4938248;29;20024;-88
2021/06/21 10:36:08;;;;;;;4.68;1.50;;;25.60;98.80;;;;;;4942678;29;20062;-92
2021/06/21 10:38:34;;;;;;;7.25;1.65;;;25.80;99.10;;;;;;4920115;29;20027;-93
2021/06/21 10:41:04;;;;;;;2.05;1.40;;;25.90;98.50;;;;;;4919932;29;20031;-94
2021/06/21 10:43:47;;;;;;;4.00;1.58;;;25.90;98.40;;;;;;4919745;29;20059;-92
2021/06/21 10:46:23;;;;;;;5.68;1.42;;;25.90;98.50;;;;;;4935421;29;20031;-91
2021/06/21 10:49:01;;;;;;;4.28;1.50;;;26.10;98.90;;;;;;4919269;29;20421;-90
2021/06/21 10:51:33;;;;;;;4.22;1.52;;;26.20;98.60;;;;;;4918742;29;20052;-92
2021/06/21 10:53:59;;;;;;;4.75;1.50;;;26.20;98.40;;;;;;4918763;29;20020;-90
2021/06/21 10:56:44;;;;;;;3.20;1.20;;;26.40;99.00;;;;;;4918917;29;20113;-90
2021/06/21 10:59:12;;;;;;;3.40;1.38;;;26.60;99.10;;;;;;4935614;29;20059;-91
2021/06/21 11:01:55;;;;;;;3.30;1.60;;;26.70;99.00;;;;;;4919312;29;20043;-90
2021/06/21 11:04:47;;;;;;;3.17;1.40;;;26.90;99.00;;;;;;4913466;29;20044;-90
2021/06/21 11:07:22;;;;;;;3.55;1.33;;;27.10;99.10;;;;;;4901472;29;20399;-91
2021/06/21 11:09:52;;;;;;;3.60;1.60;;;27.30;99.30;;;;;;4935547;29;20020;-92
2021/06/21 11:12:21;;;;;;;4.80;1.65;;;27.40;99.10;;;;;;4918768;29;20028;-90
2021/06/21 11:15:17;;;;;;;4.65;1.30;;;27.60;99.30;;;;;;4918475;29;20491;-91
2021/06/21 11:17:45;;;;;;;5.13;1.50;;;28.10;99.90;;;;;;4912586;29;20052;-91
2021/06/21 11:20:29;;;;;;;3.55;1.50;;;28.40;99.90;;;;;;4918733;29;20040;-91
2021/06/21 11:23:02;;;;;;;;;;;29.00;99.90;;;;;;4924093;29;20023;-87
2021/06/21 11:25:42;;;;;;;7.43;1.60;;;29.40;99.90;;;;;;4935349;29;20292;-88
2021/06/21 11:28:36;;;;;;;5.05;1.60;;;29.80;99.90;;;;;;4935342;29;20034;-87
2021/06/21 11:31:28;;;;;;;4.63;1.40;;;30.80;99.90;;;;;;4912243;29;20020;-90
2021/06/21 11:33:55;;;;;;;3.42;1.55;;;31.70;99.90;;;;;;4912920;29;20055;-89
2021/06/21 11:36:44;;;;;;;5.43;1.60;;;32.20;99.90;;;;;;4934951;29;20039;-88
2021/06/21 11:39:24;;;;;;;3.58;1.52;;;32.90;99.90;;;;;;4919575;29;20052;-87
2021/06/21 11:42:04;;;;;;;5.57;1.42;;;33.80;99.90;;;;;;4918173;29;20032;-88
2021/06/21 11:44:41;;;;;;;3.58;1.52;;;34.10;99.90;;;;;;4935323;29;20034;-88
2021/06/21 11:47:28;;;;;;;6.53;2.35;;;34.60;99.90;;;;;;4918186;29;20038;-89
2021/06/21 11:50:34;;;;;;;4.30;1.42;;;35.00;99.90;;;;;;4918023;29;20031;-88
2021/06/21 11:53:00;;;;;;;4.03;1.45;;;35.40;99.60;;;;;;4920729;29;20047;-88
2021/06/21 11:55:27;;;;;;;3.10;1.67;;;35.80;99.20;;;;;;4934778;29;20032;-88
2021/06/21 11:57:57;;;;;;;3.58;1.60;;;36.30;99.80;;;;;;4922525;29;20028;-88
2021/06/21 12:01:00;;;;;;;3.60;1.67;;;36.80;99.60;;;;;;4937109;29;20118;-88
2021/06/21 12:03:38;;;;;;;6.13;1.55;;;37.00;98.30;;;;;;4899679;29;20421;-88
2021/06/21 12:06:38;;;;;;;2.58;1.40;;;37.50;98.70;;;;;;4917435;29;20078;-89
2021/06/21 12:09:08;;;;;;;4.93;1.48;;;38.00;98.50;;;;;;4934410;29;20062;-88
2021/06/21 12:11:41;;;;;;;4.88;1.60;;;38.50;97.80;;;;;;4933571;29;20492;-88
2021/06/21 12:14:09;;;;;;;;;;;39.10;97.90;;;;;;4917891;29;20039;-85
2021/06/21 12:16:42;;;;;;;2.22;1.50;;;39.70;98.40;;;;;;4911670;29;19959;-85
2021/06/21 12:19:11;;;;;;;4.78;1.52;;;40.10;96.50;;;;;;4917505;29;20056;-86
2021/06/21 12:21:39;;;;;;;5.38;1.60;;;40.10;94.10;;;;;;4917741;29;20042;-85
2021/06/21 12:24:17;;;;;;;2.83;1.45;;;39.90;94.80;;;;;;4918708;29;20075;-85
2021/06/21 12:26:44;;;;;;;5.13;1.80;;;40.40;95.60;;;;;;4928132;29;20034;-85
2021/06/21 12:29:30;;;;;;;4.60;1.75;;;40.60;95.10;;;;;;4938431;29;20476;-85
2021/06/21 12:32:07;;;;;;;3.72;1.60;;;41.30;96.40;;;;;;4938295;29;20376;-84
2021/06/21 12:34:49;;;;;;;4.80;1.70;;;42.00;95.30;;;;;;4921226;29;20030;-85
2021/06/21 12:37:16;;;;;;;;;;;42.40;93.70;;;;;;4920660;29;20491;-85
2021/06/21 12:39:46;;;;;;;3.17;1.70;;;42.50;94.20;;;;;;4938715;29;19959;-84
2021/06/21 12:42:15;;;;;;;4.53;1.55;;;42.60;93.50;;;;;;4931214;29;20034;-84
2021/06/21 12:44:41;;;;;;;5.13;1.70;;;43.00;93.30;;;;;;4938046;29;20035;-85
2021/06/21 12:47:25;;;;;;;4.18;2.10;;;43.60;93.10;;;;;;4938195;29;20027;-85
2021/06/21 12:49:54;;;;;;;3.40;1.70;;;44.00;92.40;;;;;;4914515;29;20028;-84
2021/06/21 12:52:23;;;;;;;3.08;1.33;;;44.00;92.00;;;;;;4920517;29;20511;-85
2021/06/21 12:55:06;;;;;;;4.75;1.88;;;43.90;89.90;;;;;;4937678;29;20032;-85
2021/06/21 12:57:55;;;;;;;2.75;1.70;;;42.70;87.30;;;;;;4921179;29;20024;-86
2021/06/21 13:00:40;;;;;;;5.28;1.63;;;42.20;84.80;;;;;;4920847;29;20115;-85
2021/06/21 13:03:22;;;;;;;5.13;1.98;;;40.70;82.10;;;;;;4937923;29;20067;-84
2021/06/21 13:06:00;;;;;;;3.95;1.52;;;39.70;89.10;;;;;;4937893;29;20043;-84
2021/06/21 13:08:35;;;;;;;6.13;1.77;;;39.60;87.50;;;;;;4920323;29;20027;-85
2021/06/21 13:11:08;;;;;;;6.18;1.70;;;38.70;85.10;;;;;;4928116;29;20071;-87
2021/06/21 13:14:08;;;;;;;3.53;1.80;;;37.90;85.20;;;;;;4920328;29;20031;-87
2021/06/21 13:16:33;;;;;;;4.30;1.88;;;38.50;93.70;;;;;;4936336;29;20020;-84
2021/06/21 13:19:05;;;;;;;4.82;2.15;;;40.30;95.20;;;;;;4937220;29;20052;-84
2021/06/21 13:21:51;;;;;;;4.50;2.10;;;42.30;96.00;;;;;;4920531;29;20035;-84
2021/06/21 13:24:38;;;;;;;2.15;1.42;;;44.10;94.10;;;;;;4931012;29;20111;-83
2021/06/21 13:27:28;;;;;;;4.15;1.80;;;43.70;83.90;;;;;;4930145;29;20023;-83
2021/06/21 13:29:56;;;;;;;4.65;1.90;;;42.00;79.80;;;;;;4937034;29;20108;-83
2021/06/21 13:32:28;;;;;;;3.03;1.98;;;40.70;81.40;;;;;;4937119;29;20023;-83
2021/06/21 13:34:56;;;;;;;2.45;1.73;;;40.10;86.90;;;;;;4937060;29;20028;-83
2021/06/21 13:37:33;;;;;;;4.15;1.73;;;40.80;91.90;;;;;;4936342;29;20039;-83
2021/06/21 13:40:05;;;;;;;2.50;1.67;;;41.80;91.30;;;;;;4936703;29;20030;-83
2021/06/21 13:42:37;;;;;;;;;;;42.60;91.50;;;;;;4937330;29;20424;-84
2021/06/21 13:45:12;;;;;;;4.85;1.70;;;43.50;92.50;;;;;;4936693;29;19919;-83
2021/06/21 13:47:44;;;;;;;3.70;1.80;;;44.10;89.80;;;;;;4936672;29;20040;-83
2021/06/21 13:50:15;;;;;;;4.43;1.90;;;44.20;89.80;;;;;;4919728;29;20027;-83
2021/06/21 13:52:45;;;;;;;3.90;1.88;;;45.20;90.10;;;;;;4936518;29;20023;-83
2021/06/21 13:55:16;;;;;;;3.97;1.85;;;45.70;87.40;;;;;;4936236;29;20056;-85
2021/06/21 13:57:44;;;;;;;4.20;1.90;;;46.30;87.00;;;;;;4936659;29;20106;-83
2021/06/21 14:00:45;;;;;;;4.05;2.03;;;46.40;83.20;;;;;;4936443;29;20035;-83
2021/06/21 14:03:44;;;;;;;4.45;1.70;;;46.60;81.80;;;;;;4936494;29;20020;-83
2021/06/21 14:06:10;;;;;;;4.45;2.13;;;46.80;83.80;;;;;;4926351;29;20122;-83
2021/06/21 14:08:36;;;;;;;4.70;1.90;;;46.90;81.00;;;;;;4921807;29;20028;-84
2021/06/21 14:11:10;;;;;;;6.32;2.20;;;47.50;82.70;;;;;;4936694;29;20028;-83
2021/06/21 14:13:38;;;;;;;4.35;2.03;;;48.20;83.90;;;;;;4918938;29;20031;-85
2021/06/21 14:16:04;;;;;;;3.38;2.00;;;49.00;83.10;;;;;;4935872;29;20015;-86
2021/06/21 14:18:30;;;;;;;2.22;2.00;;;49.40;82.20;;;;;;4942226;29;20043;-84
2021/06/21 14:20:56;;;;;;;5.47;1.95;;;49.50;80.30;;;;;;4935595;29;20139;-84
2021/06/21 14:23:22;;;;;;;5.57;2.30;;;49.90;79.30;;;;;;4941448;29;20539;-83
2021/06/21 14:25:49;;;;;;;4.95;2.25;;;50.40;80.00;;;;;;4952444;28;20042;-87
2021/06/21 14:28:15;;;;;;;3.95;2.20;;;50.90;80.40;;;;;;4919670;29;20047;-85
2021/06/21 14:30:41;;;;;;;4.43;2.40;;;51.70;79.50;;;;;;4937274;29;20437;-85
2021/06/21 14:33:07;;;;;;;5.65;2.50;;;52.20;77.70;;;;;;4935795;29;20062;-85
2021/06/21 14:35:33;;;;;;;5.20;2.53;;;52.40;75.20;;;;;;4936245;29;20120;-87
2021/06/21 14:37:59;;;;;;;5.30;2.72;;;52.40;74.70;;;;;;4936417;29;20443;-87
2021/06/21 14:40:27;;;;;;;4.30;2.60;;;52.70;75.40;;;;;;4936287;29;20400;-87
2021/06/21 14:42:52;;;;;;;5.15;2.60;;;52.50;71.50;;;;;;4935997;29;20032;-88
2021/06/21 14:45:18;;;;;;;3.53;2.40;;;52.60;72.60;;;;;;4937491;29;20094;-88
2021/06/21 14:47:44;;;;;;;7.07;2.92;;;52.30;71.30;;;;;;4943296;29;20310;-86
2021/06/21 14:52:38;;;;;;;6.28;2.60;;;52.50;71.50;;;;;;4936504;29;20026;-86
2021/06/21 14:55:05;;;;;;;3.63;2.50;;;52.70;69.80;;;;;;4943275;29;20507;-86
2021/06/21 14:57:34;;;;;;;4.65;2.67;;;53.20;71.60;;;;;;4941597;29;20027;-86
2021/06/21 14:59:59;;;;;;;5.22;2.75;;;53.70;69.20;;;;;;4935551;29;20083;-87
2021/06/21 15:02:25;;;;;;;4.35;2.50;;;53.70;68.90;;;;;;4918927;29;20404;-88
2021/06/21 15:04:51;;;;;;;5.78;2.60;;;53.70;70.10;;;;;;4934630;29;20116;-87
2021/06/21 15:07:16;;;;;;;2.92;2.50;;;54.10;70.10;;;;;;4936092;29;20377;-87
2021/06/21 15:09:42;;;;;;;4.60;2.40;;;54.10;70.40;;;;;;4934577;29;20039;-87
2021/06/21 15:12:08;;;;;;;5.57;2.60;;;54.60;71.50;;;;;;4935754;29;20118;-87
2021/06/21 15:14:36;;;;;;;4.38;2.60;;;55.30;71.30;;;;;;4935423;29;20031;-87
2021/06/21 15:17:02;;;;;;;5.78;2.80;;;55.40;70.20;;;;;;4935353;29;20118;-87
2021/06/21 15:19:27;;;;;;;4.72;2.42;;;55.70;70.00;;;;;;4935630;29;20154;-86
2021/06/21 15:21:54;;;;;;;4.68;2.30;;;55.50;68.40;;;;;;4935890;29;20035;-88
2021/06/21 15:24:20;;;;;;;4.93;2.30;;;55.20;68.90;;;;;;4938987;29;20043;-87
2021/06/21 15:26:46;;;;;;;5.93;2.40;;;55.10;68.10;;;;;;4938094;29;20480;-87
2021/06/21 15:29:12;;;;;;;3.75;2.00;;;55.00;67.90;;;;;;4936013;29;20492;-87
2021/06/21 15:31:39;;;;;;;2.90;2.08;;;54.90;68.40;;;;;;4934576;29;20068;-87
2021/06/21 15:34:05;;;;;;;3.33;2.00;;;54.60;68.60;;;;;;4920500;29;20031;-87
2021/06/21 15:36:32;;;;;;;5.38;2.20;;;54.30;68.00;;;;;;4920483;29;20362;-89
2021/06/21 15:38:59;;;;;;;4.25;2.20;;;54.40;69.20;;;;;;4935745;29;20059;-89
2021/06/21 15:41:25;;;;;;;3.92;2.22;;;54.40;69.30;;;;;;4929049;29;20098;-89
2021/06/21 15:43:50;;;;;;;3.03;2.20;;;54.00;68.40;;;;;;4918426;29;20388;-89
2021/06/21 15:46:16;;;;;;;3.90;2.20;;;53.50;67.60;;;;;;4935867;29;20024;-89
2021/06/21 15:48:42;;;;;;;4.13;2.00;;;52.90;68.10;;;;;;4924176;29;20523;-89
2021/06/21 15:51:11;;;;;;;4.95;2.20;;;52.90;71.40;;;;;;4935448;29;20492;-89
2021/06/21 15:53:38;;;;;;;5.93;2.15;;;53.40;71.70;;;;;;4918000;29;20082;-89
2021/06/21 15:56:05;;;;;;;3.85;2.30;;;53.70;70.70;;;;;;4938653;29;20035;-90
2021/06/21 15:58:32;;;;;;;3.08;2.08;;;53.80;66.60;;;;;;4935218;29;20016;-90
2021/06/21 16:00:58;;;;;;;5.55;2.28;;;53.70;65.40;;;;;;4920541;29;20039;-89
2021/06/21 16:03:25;;;;;;;5.22;3.08;;;53.90;64.90;;;;;;4938973;29;20020;-89
2021/06/21 16:05:54;;;;;;;5.07;2.40;;;53.90;65.90;;;;;;4938745;29;20094;-87
2021/06/21 16:08:20;;;;;;;3.80;2.00;;;54.10;64.10;;;;;;4938986;29;20020;-89
2021/06/21 16:10:47;;;;;;;2.47;1.90;;;53.90;64.70;;;;;;4938559;29;20035;-89
2021/06/21 16:13:14;;;;;;;4.53;1.98;;;53.90;65.00;;;;;;4921968;29;20484;-89
2021/06/21 16:15:41;;;;;;;4.57;1.90;;;53.90;64.20;;;;;;4938496;29;20500;-88
2021/06/21 16:18:07;;;;;;;3.78;1.90;;;54.10;64.20;;;;;;4937140;29;20043;-88
2021/06/21 16:20:35;;;;;;;3.15;1.70;;;54.10;62.40;;;;;;4921306;29;20031;-90
2021/06/21 16:23:01;;;;;;;4.47;1.90;;;53.90;61.80;;;;;;4938170;29;20372;-90
2021/06/21 16:25:27;;;;;;;2.45;1.60;;;53.60;61.00;;;;;;4938328;29;20022;-89
2021/06/21 16:27:53;;;;;;;2.50;1.60;;;53.30;60.90;;;;;;4921057;29;20048;-89
2021/06/21 16:30:21;;;;;;;4.00;1.60;;;52.90;60.00;;;;;;4938314;29;20059;-88
2021/06/21 16:32:49;;;;;;;5.13;1.85;;;52.30;60.50;;;;;;4920923;29;20027;-89
2021/06/21 16:35:20;;;;;;;5.75;1.83;;;51.80;59.10;;;;;;4938149;29;20038;-93
2021/06/21 16:37:50;;;;;;;2.10;1.70;;;51.50;61.20;;;;;;4921193;29;20098;-90